createdAt,value
2018-04-10T00:01:14.163Z,13.60
2018-04-10T00:03:41.678Z,13.60
2018-04-10T00:06:09.158Z,13.60
2018-04-10T00:08:36.610Z,13.60
2018-04-10T00:11:04.095Z,13.60
2018-04-10T00:13:31.525Z,13.60
2018-04-10T00:15:59.007Z,13.50
2018-04-10T00:18:26.466Z,13.60
2018-04-10T00:20:53.922Z,13.50
2018-04-10T00:23:21.372Z,13.40
2018-04-10T00:25:48.837Z,13.40
2018-04-10T00:28:16.295Z,13.40
2018-04-10T00:30:43.757Z,13.40
2018-04-10T00:33:11.213Z,13.40
2018-04-10T00:35:38.654Z,13.40
2018-04-10T00:38:06.132Z,13.40
2018-04-10T00:40:33.629Z,13.40
2018-04-10T00:43:01.085Z,13.40
2018-04-10T00:45:28.543Z,13.20
2018-04-10T00:47:56.000Z,13.20
2018-04-10T00:50:23.473Z,13.10
2018-04-10T00:52:50.925Z,13.00
2018-04-10T00:55:18.370Z,12.80
2018-04-10T00:57:45.828Z,12.70
2018-04-10T01:00:13.286Z,12.60
2018-04-10T01:02:40.757Z,12.60
2018-04-10T01:05:08.227Z,12.60
2018-04-10T01:07:35.697Z,12.50
2018-04-10T01:10:03.163Z,12.40
2018-04-10T01:12:30.622Z,12.40
2018-04-10T01:14:58.070Z,12.40
2018-04-10T01:17:25.526Z,12.30
2018-04-10T01:19:53.761Z,12.10
2018-04-10T01:22:21.257Z,12.10
2018-04-10T01:24:48.709Z,12.10
2018-04-10T01:27:16.283Z,12.10
2018-04-10T01:29:43.730Z,12.10
2018-04-10T01:32:11.189Z,12.10
2018-04-10T01:34:38.637Z,12.10
2018-04-10T01:37:06.090Z,12.10
2018-04-10T01:39:34.315Z,12.00
2018-04-10T01:42:01.802Z,12.00
2018-04-10T01:44:30.049Z,11.90
2018-04-10T01:46:57.539Z,11.90
2018-04-10T01:49:24.989Z,11.90
2018-04-10T01:51:52.443Z,11.80
2018-04-10T01:54:19.898Z,11.70
2018-04-10T01:56:47.356Z,11.70
2018-04-10T01:59:14.817Z,11.70
2018-04-10T02:01:43.057Z,11.70
2018-04-10T02:04:10.520Z,11.60
2018-04-10T02:06:37.954Z,11.70
2018-04-10T02:09:05.407Z,11.70
2018-04-10T02:11:33.631Z,11.70
2018-04-10T02:14:01.103Z,11.60
2018-04-10T02:16:28.577Z,11.70
2018-04-10T02:18:56.109Z,11.70
2018-04-10T02:21:24.326Z,11.70
2018-04-10T02:23:51.782Z,11.70
2018-04-10T02:26:19.237Z,11.80
2018-04-10T02:28:47.472Z,11.80
2018-04-10T02:31:14.916Z,11.70
2018-04-10T02:33:42.439Z,11.70
2018-04-10T02:36:09.892Z,11.70
2018-04-10T02:38:37.352Z,11.70
2018-04-10T02:41:04.804Z,11.70
2018-04-10T02:43:32.262Z,11.80
2018-04-10T02:45:59.698Z,11.90
2018-04-10T02:48:27.170Z,11.90
2018-04-10T02:50:54.646Z,11.90
2018-04-10T02:53:22.094Z,11.90
2018-04-10T02:55:49.547Z,11.80
2018-04-10T02:58:16.998Z,11.70
2018-04-10T03:00:44.464Z,11.70
2018-04-10T03:03:11.974Z,11.60
2018-04-10T03:05:39.915Z,11.60
2018-04-10T03:08:07.366Z,11.50
2018-04-10T03:10:34.805Z,11.60
2018-04-10T03:13:02.274Z,11.60
2018-04-10T03:15:29.725Z,11.40
2018-04-10T03:17:57.177Z,11.30
2018-04-10T03:20:24.633Z,11.20
2018-04-10T03:22:52.101Z,11.20
2018-04-10T03:25:19.562Z,11.20
2018-04-10T03:27:47.019Z,11.10
2018-04-10T03:30:14.473Z,11.00
2018-04-10T03:32:41.933Z,10.90
2018-04-10T03:35:09.388Z,11.00
2018-04-10T03:37:36.849Z,11.00
2018-04-10T03:40:04.298Z,11.10
2018-04-10T03:42:31.764Z,11.10
2018-04-10T03:44:59.227Z,11.10
2018-04-10T03:47:26.676Z,11.10
2018-04-10T03:49:54.129Z,11.20
2018-04-10T03:52:21.586Z,11.20
2018-04-10T03:54:49.811Z,11.30
2018-04-10T03:57:17.277Z,11.30
2018-04-10T03:59:44.741Z,11.30
2018-04-10T04:02:12.875Z,11.30
2018-04-10T04:04:40.354Z,11.30
2018-04-10T04:07:07.824Z,11.30
2018-04-10T04:09:35.289Z,11.30
2018-04-10T04:12:02.743Z,11.30
2018-04-10T04:14:30.239Z,11.30
2018-04-10T04:17:09.637Z,11.20
2018-04-10T04:19:49.111Z,11.30
2018-04-10T04:22:28.507Z,11.40
2018-04-10T04:24:55.996Z,11.40
2018-04-10T04:27:23.439Z,11.50
2018-04-10T04:29:52.510Z,11.50
2018-04-10T04:32:19.998Z,11.50
2018-04-10T04:34:47.479Z,11.50
2018-04-10T04:37:14.929Z,11.50
2018-04-10T04:39:42.387Z,11.50
2018-04-10T04:42:09.851Z,11.50
2018-04-10T04:44:37.340Z,11.50
2018-04-10T04:47:04.791Z,11.50
2018-04-10T04:49:32.263Z,11.60
2018-04-10T04:51:59.728Z,11.70
2018-04-10T04:54:27.957Z,11.80
2018-04-10T04:56:55.418Z,11.80
2018-04-10T04:59:22.874Z,11.80
2018-04-10T05:01:51.110Z,11.60
2018-04-10T05:04:18.596Z,11.60
2018-04-10T05:06:46.052Z,11.50
2018-04-10T05:09:13.601Z,11.50
2018-04-10T05:11:41.041Z,11.40
2018-04-10T05:14:09.414Z,11.30
2018-04-10T05:16:36.866Z,11.30
2018-04-10T05:19:04.348Z,11.20
2018-04-10T05:21:31.832Z,11.20
2018-04-10T05:23:59.290Z,11.30
2018-04-10T05:26:26.746Z,11.30
2018-04-10T05:28:54.206Z,11.40
2018-04-10T05:31:21.650Z,11.40
2018-04-10T05:33:49.121Z,11.50
2018-04-10T05:36:17.344Z,11.60
2018-04-10T05:38:44.836Z,11.60
2018-04-10T05:41:12.319Z,11.70
2018-04-10T05:43:39.794Z,11.80
2018-04-10T05:46:07.296Z,11.90
2018-04-10T05:48:34.787Z,12.00
2018-04-10T05:51:02.262Z,12.00
2018-04-10T05:53:29.722Z,12.10
2018-04-10T05:55:57.195Z,12.20
2018-04-10T05:58:24.690Z,12.20
2018-04-10T06:00:52.138Z,12.30
2018-04-10T06:03:19.599Z,12.50
2018-04-10T06:05:47.067Z,12.70
2018-04-10T06:08:14.682Z,12.90
2018-04-10T06:10:42.167Z,13.00
2018-04-10T06:13:09.995Z,13.30
2018-04-10T06:15:37.444Z,13.40
2018-04-10T06:18:04.903Z,13.50
2018-04-10T06:20:32.372Z,13.70
2018-04-10T06:22:59.826Z,13.90
2018-04-10T06:25:27.312Z,14.00
2018-04-10T06:27:54.782Z,14.20
2018-04-10T06:30:22.248Z,14.30
2018-04-10T06:32:49.743Z,14.40
2018-04-10T06:35:17.195Z,14.60
2018-04-10T06:37:44.657Z,14.80
2018-04-10T06:40:12.167Z,14.90
2018-04-10T06:42:39.619Z,15.00
2018-04-10T06:45:07.095Z,15.10
2018-04-10T06:47:35.353Z,15.30
2018-04-10T06:50:02.809Z,15.30
2018-04-10T06:52:30.246Z,15.50
2018-04-10T06:54:58.553Z,15.70
2018-04-10T06:57:26.022Z,15.70
2018-04-10T06:59:53.484Z,15.90
2018-04-10T07:02:21.025Z,16.10
2018-04-10T07:04:48.487Z,16.20
2018-04-10T07:07:16.710Z,16.60
2018-04-10T07:09:44.213Z,16.50
2018-04-10T07:12:11.670Z,16.70
2018-04-10T07:14:39.157Z,17.00
2018-04-10T07:17:06.654Z,17.20
2018-04-10T07:19:34.121Z,17.50
2018-04-10T07:22:01.599Z,17.70
2018-04-10T07:24:29.088Z,17.90
2018-04-10T07:26:56.540Z,18.00
2018-04-10T07:29:23.995Z,18.30
2018-04-10T07:31:52.254Z,18.40
2018-04-10T07:34:19.725Z,17.90
2018-04-10T07:36:47.172Z,17.20
2018-04-10T07:39:14.648Z,17.30
2018-04-10T07:41:42.113Z,17.80
2018-04-10T07:44:09.563Z,17.90
2018-04-10T07:46:37.014Z,18.10
2018-04-10T07:49:04.478Z,18.20
2018-04-10T07:51:31.966Z,18.20
2018-04-10T07:53:59.469Z,18.30
2018-04-10T07:56:26.912Z,18.50
2018-04-10T07:58:54.361Z,18.70
2018-04-10T08:01:21.819Z,18.90
2018-04-10T08:03:50.093Z,19.20
2018-04-10T08:06:17.499Z,19.20
2018-04-10T08:08:44.954Z,19.40
2018-04-10T08:11:13.213Z,19.70
2018-04-10T08:13:40.662Z,19.70
2018-04-10T08:16:08.127Z,19.00
2018-04-10T08:18:36.518Z,19.00
2018-04-10T08:21:04.002Z,19.00
2018-04-10T08:23:31.472Z,18.90
2018-04-10T08:25:58.944Z,19.00
2018-04-10T08:28:26.436Z,19.10
2018-04-10T08:30:53.876Z,19.00
2018-04-10T08:33:21.369Z,19.00
2018-04-10T08:35:48.817Z,19.10
2018-04-10T08:38:16.286Z,19.30
2018-04-10T08:40:43.758Z,19.00
2018-04-10T08:43:11.957Z,18.00
2018-04-10T08:45:39.414Z,18.00
2018-04-10T08:48:06.869Z,18.00
2018-04-10T08:50:34.390Z,17.90
2018-04-10T08:53:01.801Z,18.00
2018-04-10T08:55:30.036Z,18.80
2018-04-10T08:57:57.489Z,18.80
2018-04-10T09:00:24.951Z,18.70
2018-04-10T09:02:53.172Z,18.70
2018-04-10T09:05:20.661Z,18.70
2018-04-10T09:07:48.864Z,18.80
2018-04-10T09:10:16.335Z,18.80
2018-04-10T09:12:43.793Z,18.80
2018-04-10T09:15:12.052Z,19.30
2018-04-10T09:17:40.283Z,19.60
2018-04-10T09:20:07.729Z,19.60
2018-04-10T09:22:35.179Z,19.60
2018-04-10T09:25:02.642Z,19.70
2018-04-10T09:27:30.843Z,19.70
2018-04-10T09:29:58.305Z,19.70
2018-04-10T09:32:25.753Z,19.70
2018-04-10T09:34:53.224Z,19.70
2018-04-10T09:37:20.680Z,19.60
2018-04-10T09:39:48.905Z,20.20
2018-04-10T09:42:16.375Z,20.20
2018-04-10T09:44:43.886Z,20.30
2018-04-10T09:47:11.325Z,20.30
2018-04-10T09:49:38.930Z,20.50
2018-04-10T09:52:07.127Z,20.10
2018-04-10T09:54:34.570Z,20.10
2018-04-10T09:57:02.046Z,19.90
2018-04-10T09:59:29.490Z,19.80
2018-04-10T10:01:56.944Z,20.20
2018-04-10T10:04:25.146Z,20.50
2018-04-10T10:06:52.594Z,20.50
2018-04-10T10:09:20.048Z,20.70
2018-04-10T10:11:47.535Z,20.90
2018-04-10T10:14:14.974Z,20.90
2018-04-10T10:16:42.424Z,21.10
2018-04-10T10:19:09.880Z,20.90
2018-04-10T10:21:38.126Z,21.10
2018-04-10T10:24:06.336Z,21.10
2018-04-10T10:26:33.782Z,21.10
2018-04-10T10:29:01.242Z,21.10
2018-04-10T10:31:28.702Z,21.10
2018-04-10T10:33:56.995Z,20.60
2018-04-10T10:36:24.433Z,20.60
2018-04-10T10:38:51.904Z,20.00
2018-04-10T10:41:19.387Z,19.70
2018-04-10T10:43:46.808Z,19.80
2018-04-10T10:46:14.265Z,20.00
2018-04-10T10:48:41.728Z,19.80
2018-04-10T10:51:09.281Z,19.30
2018-04-10T10:53:36.739Z,19.40
2018-04-10T10:56:04.206Z,19.80
2018-04-10T10:58:31.655Z,20.10
2018-04-10T11:00:59.229Z,20.40
2018-04-10T11:03:26.677Z,20.50
2018-04-10T11:05:54.141Z,20.70
2018-04-10T11:08:21.607Z,20.80
2018-04-10T11:10:49.146Z,20.90
2018-04-10T11:13:16.670Z,21.00
2018-04-10T11:15:44.881Z,21.30
2018-04-10T11:18:12.329Z,21.30
2018-04-10T11:20:39.863Z,21.20
2018-04-10T11:23:07.329Z,21.30
2018-04-10T11:25:34.863Z,21.40
2018-04-10T11:28:02.322Z,21.50
2018-04-10T11:30:29.818Z,21.50
2018-04-10T11:32:57.281Z,21.60
2018-04-10T11:35:24.885Z,21.60
2018-04-10T11:37:53.113Z,21.40
2018-04-10T11:40:20.590Z,21.30
2018-04-10T11:42:48.825Z,21.50
2018-04-10T11:45:16.317Z,21.50
2018-04-10T11:47:43.768Z,21.50
2018-04-10T11:50:11.218Z,21.40
2018-04-10T11:52:38.684Z,21.50
2018-04-10T11:55:06.150Z,21.60
2018-04-10T11:57:33.707Z,21.70
2018-04-10T12:00:01.151Z,21.70
2018-04-10T12:02:29.398Z,20.70
2018-04-10T12:04:56.852Z,20.70
2018-04-10T12:07:25.065Z,21.00
2018-04-10T12:09:52.563Z,21.00
2018-04-10T12:12:20.797Z,21.00
2018-04-10T12:14:48.298Z,21.00
2018-04-10T12:17:15.772Z,21.10
2018-04-10T12:19:43.218Z,20.70
2018-04-10T12:22:10.691Z,20.30
2018-04-10T12:24:38.901Z,20.60
2018-04-10T12:27:06.408Z,20.60
2018-04-10T12:29:33.870Z,20.60
2018-04-10T12:32:01.335Z,20.60
2018-04-10T12:34:28.805Z,20.00
2018-04-10T12:36:56.270Z,19.80
2018-04-10T12:39:24.475Z,20.20
2018-04-10T12:41:51.925Z,20.20
2018-04-10T12:44:19.387Z,20.40
2018-04-10T12:46:46.821Z,20.60
2018-04-10T12:49:14.270Z,20.50
2018-04-10T12:51:41.750Z,20.30
2018-04-10T12:54:09.981Z,20.30
2018-04-10T12:56:37.463Z,20.30
2018-04-10T12:59:05.670Z,20.40
2018-04-10T13:01:33.146Z,20.30
2018-04-10T13:04:00.601Z,20.60
2018-04-10T13:06:28.826Z,20.70
2018-04-10T13:08:56.299Z,20.60
2018-04-10T13:11:23.854Z,20.50
2018-04-10T13:13:51.394Z,20.10
2018-04-10T13:16:18.846Z,20.20
2018-04-10T13:18:46.306Z,20.30
2018-04-10T13:21:13.782Z,20.40
2018-04-10T13:23:41.252Z,20.50
2018-04-10T13:26:08.717Z,20.70
2018-04-10T13:28:36.942Z,20.50
2018-04-10T13:31:04.407Z,20.20
2018-04-10T13:33:32.618Z,20.00
2018-04-10T13:36:00.070Z,20.00
2018-04-10T13:38:27.530Z,20.20
2018-04-10T13:40:54.988Z,20.20
2018-04-10T13:43:23.246Z,20.50
2018-04-10T13:45:50.742Z,20.50
2018-04-10T13:48:18.217Z,20.60
2018-04-10T13:50:45.678Z,20.50
2018-04-10T13:53:13.926Z,20.80
2018-04-10T13:55:41.369Z,20.80
2018-04-10T13:58:08.862Z,20.80
2018-04-10T14:00:36.326Z,20.70
2018-04-10T14:03:03.850Z,20.80
2018-04-10T14:05:31.299Z,20.80
2018-04-10T14:07:58.745Z,20.70
2018-04-10T14:10:26.194Z,20.70
2018-04-10T14:12:53.656Z,20.80
2018-04-10T14:15:21.119Z,21.00
2018-04-10T14:17:48.578Z,20.80
2018-04-10T14:20:16.805Z,20.60
2018-04-10T14:22:44.296Z,20.60
2018-04-10T14:25:12.533Z,20.60
2018-04-10T14:27:39.998Z,20.60
2018-04-10T14:30:07.485Z,20.40
2018-04-10T14:32:34.944Z,20.50
2018-04-10T14:35:02.420Z,20.60
2018-04-10T14:37:30.677Z,20.60
2018-04-10T14:39:58.117Z,20.50
2018-04-10T14:42:26.362Z,20.40
2018-04-10T14:44:53.875Z,20.40
2018-04-10T14:47:21.323Z,20.30
2018-04-10T14:49:48.761Z,20.10
2018-04-10T14:52:16.214Z,20.10
2018-04-10T14:54:43.854Z,20.10
2018-04-10T14:57:12.077Z,20.20
2018-04-10T14:59:39.533Z,20.20
2018-04-10T15:02:06.990Z,20.20
2018-04-10T15:04:34.431Z,20.00
2018-04-10T15:07:01.881Z,19.90
2018-04-10T15:09:29.325Z,20.00
2018-04-10T15:11:56.791Z,19.80
2018-04-10T15:14:24.235Z,19.80
2018-04-10T15:16:51.708Z,20.00
2018-04-10T15:19:19.950Z,20.00
2018-04-10T15:21:47.389Z,20.00
2018-04-10T15:24:14.875Z,20.10
2018-04-10T15:26:42.334Z,19.80
2018-04-10T15:29:09.780Z,19.70
2018-04-10T15:31:37.270Z,19.70
2018-04-10T15:34:05.713Z,19.50
2018-04-10T15:36:33.192Z,19.20
2018-04-10T15:39:00.657Z,19.20
2018-04-10T15:41:28.190Z,19.40
2018-04-10T15:43:55.653Z,19.40
2018-04-10T15:46:23.126Z,19.40
2018-04-10T15:48:50.574Z,19.40
2018-04-10T15:51:18.037Z,19.50
2018-04-10T15:53:45.535Z,19.40
2018-04-10T15:56:13.121Z,19.50
2018-04-10T15:58:40.680Z,19.50
2018-04-10T16:01:08.892Z,19.40
2018-04-10T16:03:36.351Z,19.40
2018-04-10T16:06:03.802Z,19.30
2018-04-10T16:08:31.275Z,19.30
2018-04-10T16:10:58.738Z,19.20
2018-04-10T16:13:26.210Z,19.20
2018-04-10T16:15:53.650Z,19.30
2018-04-10T16:18:21.118Z,19.10
2018-04-10T16:20:48.565Z,19.20
2018-04-10T16:23:16.034Z,19.00
2018-04-10T16:25:43.480Z,19.00
2018-04-10T16:28:11.745Z,18.90
2018-04-10T16:30:41.933Z,18.80
2018-04-10T16:33:09.442Z,18.80
2018-04-10T16:35:37.175Z,18.70
2018-04-10T16:38:05.870Z,18.70
2018-04-10T16:40:33.386Z,18.60
2018-04-10T16:43:00.841Z,18.50
2018-04-10T16:45:28.298Z,18.50
2018-04-10T16:47:55.783Z,18.50
2018-04-10T16:50:23.230Z,18.40
2018-04-10T16:52:51.923Z,18.40
2018-04-10T16:55:19.380Z,18.30
2018-04-10T16:57:46.872Z,18.40
2018-04-10T17:00:14.342Z,18.30
2018-04-10T17:02:41.781Z,18.20
2018-04-10T17:05:09.305Z,18.20
2018-04-10T17:07:36.748Z,18.20
2018-04-10T17:10:04.219Z,18.10
2018-04-10T17:12:31.758Z,18.20
2018-04-10T17:14:59.975Z,18.00
2018-04-10T17:17:28.389Z,18.00
2018-04-10T17:19:57.363Z,18.00
2018-04-10T17:22:24.807Z,18.00
2018-04-10T17:24:52.287Z,18.00
2018-04-10T17:27:19.741Z,17.90
2018-04-10T17:29:47.208Z,17.90
2018-04-10T17:32:14.682Z,17.90
2018-04-10T17:34:42.905Z,18.00
2018-04-10T17:37:10.358Z,17.90
2018-04-10T17:39:37.813Z,18.00
2018-04-10T17:42:06.094Z,18.10
2018-04-10T17:44:33.573Z,18.10
2018-04-10T17:47:01.045Z,18.10
2018-04-10T17:49:28.506Z,18.20
2018-04-10T17:51:55.962Z,18.20
2018-04-10T17:54:23.464Z,18.20
2018-04-10T17:56:50.939Z,18.20
2018-04-10T17:59:19.198Z,17.80
2018-04-10T18:01:47.428Z,17.70
2018-04-10T18:04:14.899Z,17.70
2018-04-10T18:06:43.146Z,17.30
2018-04-10T18:09:10.615Z,17.20
2018-04-10T18:11:38.071Z,17.20
2018-04-10T18:14:05.531Z,17.10
2018-04-10T18:16:33.040Z,17.10
2018-04-10T18:19:01.262Z,16.90
2018-04-10T18:21:28.739Z,16.80
2018-04-10T18:23:57.001Z,16.70
2018-04-10T18:26:24.450Z,16.70
2018-04-10T18:28:52.676Z,16.60
2018-04-10T18:31:20.148Z,16.60
2018-04-10T18:33:49.570Z,16.50
2018-04-10T18:36:17.261Z,16.60
2018-04-10T18:38:44.707Z,16.50
2018-04-10T18:41:12.146Z,16.50
2018-04-10T18:43:39.671Z,16.50
2018-04-10T18:46:07.176Z,16.50
2018-04-10T18:48:34.654Z,16.40
2018-04-10T18:51:02.110Z,16.40
2018-04-10T18:53:30.576Z,16.30
2018-04-10T18:55:58.046Z,16.40
2018-04-10T18:58:26.488Z,16.30
2018-04-10T19:00:54.767Z,15.90
2018-04-10T19:03:22.583Z,15.90
2018-04-10T19:05:50.042Z,15.70
2018-04-10T19:08:17.627Z,15.60
2018-04-10T19:10:45.874Z,15.30
2018-04-10T19:13:13.332Z,15.30
2018-04-10T19:15:41.580Z,15.20
2018-04-10T19:18:09.032Z,15.10
2018-04-10T19:20:37.258Z,15.00
2018-04-10T19:23:04.688Z,15.00
2018-04-10T19:25:32.143Z,14.80
2018-04-10T19:27:59.602Z,14.60
2018-04-10T19:30:27.114Z,14.60
2018-04-10T19:32:54.564Z,14.50
2018-04-10T19:35:22.019Z,14.40
2018-04-10T19:37:49.479Z,14.30
2018-04-10T19:40:17.713Z,14.10
2018-04-10T19:42:45.191Z,14.00
2018-04-10T19:45:12.718Z,14.00
2018-04-10T19:47:40.357Z,14.00
2018-04-10T19:50:07.834Z,14.00
2018-04-10T19:52:36.957Z,13.80
2018-04-10T19:55:04.411Z,13.80
2018-04-10T19:57:31.846Z,13.70
2018-04-10T19:59:59.306Z,13.60
2018-04-10T20:02:26.752Z,13.50
2018-04-10T20:04:54.218Z,13.40
2018-04-10T20:07:22.442Z,13.10
2018-04-10T20:09:49.956Z,13.10
2018-04-10T20:12:17.414Z,13.00
2018-04-10T20:14:44.874Z,13.10
2018-04-10T20:17:12.347Z,13.10
2018-04-10T20:19:39.812Z,13.20
2018-04-10T20:22:08.029Z,13.10
2018-04-10T20:24:35.503Z,13.10
2018-04-10T20:27:03.750Z,12.80
2018-04-10T20:29:31.240Z,12.80
2018-04-10T20:31:58.693Z,12.70
2018-04-10T20:34:26.155Z,12.70
2018-04-10T20:36:53.626Z,12.60
2018-04-10T20:39:21.084Z,12.30
2018-04-10T20:41:48.571Z,12.00
2018-04-10T20:44:16.026Z,12.00
2018-04-10T20:46:43.516Z,12.10
2018-04-10T20:49:11.737Z,11.70
2018-04-10T20:51:39.226Z,11.70
2018-04-10T20:54:06.710Z,11.60
2018-04-10T20:56:34.182Z,11.60
2018-04-10T20:59:01.645Z,11.80
2018-04-10T21:01:29.124Z,12.00
2018-04-10T21:03:56.614Z,12.10
2018-04-10T21:06:24.064Z,12.20
2018-04-10T21:08:51.508Z,12.20
2018-04-10T21:11:18.973Z,12.40
2018-04-10T21:13:46.418Z,12.50
2018-04-10T21:16:13.922Z,12.60
2018-04-10T21:18:41.384Z,12.70
2018-04-10T21:21:08.993Z,12.70
2018-04-10T21:23:36.457Z,12.60
2018-04-10T21:26:03.912Z,12.70
2018-04-10T21:28:31.372Z,12.70
2018-04-10T21:30:58.821Z,12.80
2018-04-10T21:33:27.086Z,12.90
2018-04-10T21:38:39.759Z,12.90
2018-04-10T21:41:07.410Z,12.90
2018-04-10T21:43:35.505Z,12.90
2018-04-10T21:46:02.959Z,12.90
2018-04-10T21:48:30.437Z,13.00
2018-04-10T21:50:57.887Z,12.80
2018-04-10T21:53:25.343Z,12.90
2018-04-10T21:55:53.568Z,12.90
2018-04-10T21:58:21.993Z,12.90
2018-04-10T22:00:50.019Z,12.90
2018-04-10T22:03:17.539Z,13.00
2018-04-10T22:05:45.038Z,13.00
2018-04-10T22:08:12.547Z,13.00
2018-04-10T22:10:40.006Z,13.00
2018-04-10T22:13:11.085Z,13.10
2018-04-10T22:15:38.554Z,13.10
2018-04-10T22:18:06.046Z,13.10
2018-04-10T22:20:33.492Z,13.10
2018-04-10T23:44:58.822Z,11.80
2018-04-10T23:47:26.280Z,11.80
2018-04-10T23:49:53.765Z,11.90
2018-04-10T23:52:21.222Z,12.10
2018-04-10T23:54:48.704Z,12.20
2018-04-10T23:57:16.162Z,12.30
2018-04-10T23:59:44.402Z,12.40
